Time;durP1;ratioP1;P1;durP2;ratioP2;P2;SDS_P1;SDS_P2;PMS_P1;PMS_P2;Temp;Humidity;BMP_temperature;BMP_pressure;BME280_temperature;BME280_humidity;BME280_pressure;Samples;Min_cycle;Max_cycle;Signal;HPM_P1;HPM_P2
2022/07/12 00:00:54;;;;;;;2.15;0.80;;;;;;;15.38;84.87;99739.17;1680205;85;21014;-67
2022/07/12 00:03:24;;;;;;;1.77;0.68;;;;;;;15.40;84.68;99730.09;1679087;84;21035;-67
2022/07/12 00:05:53;;;;;;;1.90;0.80;;;;;;;15.42;84.72;99732.08;1676302;85;21086;-67
2022/07/12 00:08:24;;;;;;;0.70;0.70;;;;;;;15.41;84.88;99735.08;1671009;84;21071;-67
2022/07/12 00:10:53;;;;;;;2.12;0.90;;;;;;;15.40;84.38;99738.38;1677202;85;21074;-67
2022/07/12 00:13:23;;;;;;;2.00;0.80;;;;;;;15.42;84.39;99738.98;1676911;85;21038;-65
2022/07/12 00:15:53;;;;;;;0.98;0.80;;;;;;;15.47;84.64;99746.52;1675477;85;21063;-66
2022/07/12 00:18:22;;;;;;;1.37;0.80;;;;;;;15.48;84.56;99737.16;1675943;85;21472;-67
2022/07/12 00:20:53;;;;;;;1.25;0.70;;;;;;;15.47;84.50;99734.94;1676752;85;21432;-66
2022/07/12 00:23:23;;;;;;;1.62;0.70;;;;;;;15.46;84.00;99733.80;1676183;85;20992;-66
2022/07/12 00:25:52;;;;;;;1.45;0.80;;;;;;;15.46;84.05;99731.88;1676704;85;21067;-67
2022/07/12 00:28:22;;;;;;;0.90;0.70;;;;;;;15.43;83.99;99737.89;1676815;85;21070;-66
2022/07/12 00:30:53;;;;;;;1.42;0.62;;;;;;;15.43;84.21;99738.44;1665464;85;21485;-66
2022/07/12 00:33:22;;;;;;;2.47;0.60;;;;;;;15.44;84.33;99737.34;1676946;85;21050;-67
2022/07/12 00:35:51;;;;;;;2.65;0.72;;;;;;;15.45;84.37;99733.50;1676143;85;21063;-66
2022/07/12 00:38:21;;;;;;;3.22;0.78;;;;;;;15.43;84.50;99728.77;1676003;85;21074;-66
2022/07/12 00:40:52;;;;;;;2.25;0.80;;;;;;;15.42;84.50;99729.85;1676598;85;21106;-65
2022/07/12 00:43:23;;;;;;;1.82;0.75;;;;;;;15.41;84.61;99732.32;1675448;85;21083;-66
2022/07/12 00:45:53;;;;;;;1.72;0.65;;;;;;;15.42;84.48;99726.55;1676254;85;21007;-67
2022/07/12 00:48:23;;;;;;;1.87;0.70;;;;;;;15.42;84.67;99724.34;1675926;85;20975;-65
2022/07/12 00:50:53;;;;;;;1.77;0.70;;;;;;;15.41;84.63;99730.40;1676755;85;21536;-65
2022/07/12 00:53:24;;;;;;;3.17;0.80;;;;;;;15.40;84.49;99726.50;1676332;85;21035;-64
2022/07/12 00:55:55;;;;;;;1.60;0.78;;;;;;;15.37;84.32;99727.83;1676165;85;21156;-66
2022/07/12 00:58:25;;;;;;;1.02;0.65;;;;;;;15.38;84.38;99731.43;1675780;85;21067;-63
2022/07/12 01:00:58;;;;;;;1.87;0.80;;;;;;;15.39;84.20;99726.20;1676022;85;20995;-65
2022/07/12 01:03:28;;;;;;;0.93;0.60;;;;;;;15.37;84.07;99735.28;1688600;84;21058;-65
2022/07/12 01:05:58;;;;;;;1.30;0.60;;;;;;;15.34;84.23;99733.84;1681127;83;21022;-65
2022/07/12 01:08:28;;;;;;;1.10;0.65;;;;;;;15.34;84.07;99729.70;1680443;85;21122;-65
2022/07/12 01:10:59;;;;;;;1.85;0.57;;;;;;;15.33;83.97;99723.89;1680387;84;21070;-66
2022/07/12 01:13:29;;;;;;;1.25;0.82;;;;;;;15.31;84.08;99737.63;1680121;85;21475;-66
2022/07/12 01:15:59;;;;;;;1.20;0.78;;;;;;;15.28;83.89;99730.69;1658206;85;21490;-65
2022/07/12 01:18:30;;;;;;;1.47;0.65;;;;;;;15.24;83.94;99723.98;1680210;85;21027;-66
2022/07/12 01:21:04;;;;;;;0.93;0.40;;;;;;;15.26;83.87;99719.59;1680321;85;21098;-65
2022/07/12 01:23:34;;;;;;;3.72;0.80;;;;;;;15.28;83.55;99722.95;1680777;85;21070;-65
2022/07/12 01:26:04;;;;;;;1.02;0.85;;;;;;;15.28;83.74;99722.41;1680180;85;21016;-66
2022/07/12 01:28:35;;;;;;;1.02;0.60;;;;;;;15.29;83.75;99722.70;1680104;85;21340;-66
2022/07/12 01:31:06;;;;;;;4.87;0.62;;;;;;;15.29;83.57;99722.70;1680567;85;20990;-65
2022/07/12 01:33:38;;;;;;;1.82;0.68;;;;;;;15.28;83.45;99721.02;1680458;85;21409;-66
2022/07/12 01:36:08;;;;;;;1.27;0.68;;;;;;;15.23;83.59;99717.62;1680479;85;21060;-66
2022/07/12 01:38:39;;;;;;;0.75;0.65;;;;;;;15.18;83.72;99723.03;1680111;85;21042;-65
2022/07/12 01:41:09;;;;;;;2.83;0.70;;;;;;;15.15;83.79;99717.17;1680198;85;21051;-68
2022/07/12 01:43:39;;;;;;;2.25;0.88;;;;;;;15.12;83.97;99721.25;1680209;84;21072;-64
2022/07/12 01:46:10;;;;;;;1.37;0.95;;;;;;;15.09;83.96;99717.60;1680230;84;21074;-66
2022/07/12 01:48:40;;;;;;;1.40;0.80;;;;;;;15.06;84.08;99720.01;1680680;85;21034;-65
2022/07/12 01:51:09;;;;;;;5.70;1.10;;;;;;;15.00;84.30;99721.83;1680861;85;21022;-66
2022/07/12 01:53:39;;;;;;;3.67;0.90;;;;;;;14.98;84.52;99731.42;1680238;85;21023;-65
2022/07/12 01:56:09;;;;;;;3.17;0.90;;;;;;;14.98;84.56;99723.14;1680789;85;21063;-65
2022/07/12 01:58:39;;;;;;;4.55;0.95;;;;;;;14.96;84.76;99733.05;1680391;85;21692;-67
2022/07/12 02:01:11;;;;;;;2.92;0.98;;;;;;;14.95;84.79;99731.88;1680304;84;21022;-66
2022/07/12 02:03:40;;;;;;;1.25;1.00;;;;;;;14.90;84.92;99736.73;1680302;85;21067;-67
2022/07/12 02:06:10;;;;;;;3.02;0.90;;;;;;;14.89;85.01;99729.01;1680228;84;21208;-67
2022/07/12 02:08:42;;;;;;;2.22;0.80;;;;;;;14.90;84.95;99736.20;1680555;85;21019;-67
2022/07/12 02:11:12;;;;;;;3.90;0.85;;;;;;;14.91;84.98;99737.88;1680470;84;21105;-66
2022/07/12 02:13:44;;;;;;;1.65;1.07;;;;;;;14.90;85.03;99731.22;1680659;85;21070;-66
2022/07/12 02:16:13;;;;;;;1.20;1.10;;;;;;;14.87;84.95;99735.84;1681138;85;21003;-66
2022/07/12 02:18:44;;;;;;;1.98;0.85;;;;;;;14.86;84.87;99730.88;1681280;85;21058;-66
2022/07/12 02:21:13;;;;;;;2.55;1.00;;;;;;;14.85;84.47;99742.14;1680573;84;21070;-68
2022/07/12 02:23:42;;;;;;;3.98;1.10;;;;;;;14.83;84.38;99749.28;1680757;84;21085;-66
2022/07/12 02:26:11;;;;;;;1.62;0.98;;;;;;;14.81;84.51;99751.44;1680455;85;21022;-66
2022/07/12 02:28:40;;;;;;;2.25;0.80;;;;;;;14.79;84.54;99754.14;1680844;85;21007;-66
2022/07/12 02:31:10;;;;;;;1.20;0.70;;;;;;;14.79;84.43;99762.41;1680299;85;20999;-67
2022/07/12 02:33:40;;;;;;;2.50;0.82;;;;;;;14.77;84.41;99764.58;1669732;85;21079;-67
2022/07/12 02:36:10;;;;;;;2.10;0.62;;;;;;;14.74;84.25;99767.27;1680088;84;21031;-67
2022/07/12 02:38:39;;;;;;;2.60;0.90;;;;;;;14.70;84.40;99766.08;1680581;85;21031;-68
2022/07/12 02:41:08;;;;;;;1.62;0.80;;;;;;;14.71;84.55;99773.27;1681084;85;21061;-68
2022/07/12 02:43:38;;;;;;;2.25;0.70;;;;;;;14.74;84.57;99771.41;1680845;85;21533;-67
2022/07/12 02:46:10;;;;;;;1.22;0.70;;;;;;;14.76;84.48;99774.77;1680305;85;21011;-67
2022/07/12 02:48:41;;;;;;;2.08;0.70;;;;;;;14.79;84.29;99770.15;1679913;85;21455;-68
2022/07/12 02:51:11;;;;;;;2.08;0.80;;;;;;;14.80;84.19;99770.99;1680069;84;21019;-67
2022/07/12 02:53:42;;;;;;;3.02;0.80;;;;;;;14.78;83.85;99780.88;1679550;85;21744;-68
2022/07/12 02:56:12;;;;;;;1.52;0.80;;;;;;;14.78;83.74;99778.66;1680728;84;21018;-68
2022/07/12 02:58:42;;;;;;;5.22;0.98;;;;;;;14.77;83.64;99781.13;1680373;85;21090;-67
2022/07/12 03:01:13;;;;;;;1.82;0.90;;;;;;;14.74;83.38;99770.03;1680718;84;21023;-68
2022/07/12 03:03:43;;;;;;;2.30;1.00;;;;;;;14.72;83.47;99776.87;1679600;85;21162;-67
2022/07/12 03:06:13;;;;;;;3.90;0.80;;;;;;;14.69;83.27;99772.67;1676601;85;21023;-69
2022/07/12 03:08:43;;;;;;;1.17;0.80;;;;;;;14.67;83.14;99772.07;1676307;85;21023;-68
2022/07/12 03:11:13;;;;;;;3.20;0.80;;;;;;;14.68;83.32;99770.16;1676641;85;21026;-67
2022/07/12 03:13:43;;;;;;;3.72;0.90;;;;;;;14.69;83.34;99762.19;1596288;89;21083;-67
2022/07/12 03:16:13;;;;;;;3.05;0.82;;;;;;;14.71;83.32;99773.81;1595752;90;21032;-68
2022/07/12 03:18:44;;;;;;;2.05;0.90;;;;;;;14.73;83.47;99767.52;1596103;90;21525;-69
2022/07/12 03:21:13;;;;;;;1.25;0.62;;;;;;;14.74;82.92;99765.05;1596298;90;21557;-69
2022/07/12 03:23:44;;;;;;;2.90;1.07;;;;;;;14.76;82.87;99769.80;1595843;90;21123;-68
2022/07/12 03:26:14;;;;;;;2.20;0.78;;;;;;;14.79;82.80;99765.17;1596203;90;21111;-69
2022/07/12 03:28:44;;;;;;;1.45;0.90;;;;;;;14.77;82.52;99772.84;1596168;90;21024;-68
2022/07/12 03:31:14;;;;;;;0.90;0.70;;;;;;;14.74;82.30;99770.03;1615530;86;21511;-67
2022/07/12 03:33:45;;;;;;;1.35;0.88;;;;;;;14.72;82.27;99770.81;1676251;85;20999;-69
2022/07/12 03:36:15;;;;;;;2.30;0.88;;;;;;;14.76;82.04;99767.88;1676792;85;21447;-68
2022/07/12 03:38:44;;;;;;;2.85;1.00;;;;;;;14.80;81.85;99776.50;1676254;85;21064;-69
2022/07/12 03:41:14;;;;;;;1.65;0.90;;;;;;;14.79;81.77;99777.05;1676232;85;21427;-68
2022/07/12 03:43:44;;;;;;;1.75;0.80;;;;;;;14.81;81.99;99774.05;1677031;85;21003;-68
2022/07/12 03:46:14;;;;;;;1.62;0.78;;;;;;;14.86;81.79;99775.55;1675697;85;21431;-68
2022/07/12 03:48:44;;;;;;;2.90;0.90;;;;;;;14.90;81.56;99778.95;1675773;85;21059;-68
2022/07/12 03:51:14;;;;;;;1.62;1.00;;;;;;;14.95;81.49;99781.53;1676731;85;21099;-68
2022/07/12 03:53:44;;;;;;;2.55;0.98;;;;;;;14.94;81.07;99781.23;1676066;85;21035;-69
2022/07/12 03:57:13;;;;;;;1.40;0.90;;;;;;;14.91;80.47;99779.80;1665164;85;21043;-70
2022/07/12 03:58:46;;;;;;;3.52;1.10;;;;;;;14.92;80.39;99782.85;1673419;85;21424;-69
2022/07/12 04:01:16;;;;;;;3.08;0.70;;;;;;;14.91;80.06;99790.29;1665886;85;21019;-67
2022/07/12 04:03:46;;;;;;;5.22;1.25;;;;;;;14.88;79.88;99792.15;1675472;85;21090;-67
2022/07/12 04:06:16;;;;;;;1.75;1.00;;;;;;;14.85;79.77;99794.02;1681128;83;21148;-69
2022/07/12 04:08:45;;;;;;;3.10;0.90;;;;;;;14.84;79.90;99790.95;1680605;85;21161;-69
2022/07/12 04:11:19;;;;;;;0.78;0.78;;;;;;;14.88;79.79;99797.67;1680445;85;21479;-70
2022/07/12 04:13:48;;;;;;;2.20;1.35;;;;;;;14.91;79.48;99796.34;1681056;84;21023;-67
2022/07/12 04:16:18;;;;;;;1.70;1.17;;;;;;;14.93;79.24;99801.08;1680934;85;21080;-68
2022/07/12 04:18:48;;;;;;;2.12;1.10;;;;;;;14.96;79.29;99802.02;1680679;85;21081;-68
2022/07/12 04:21:19;;;;;;;2.75;0.90;;;;;;;15.01;79.41;99797.15;1680306;85;21521;-69
2022/07/12 04:23:48;;;;;;;1.20;0.90;;;;;;;15.06;78.80;99791.75;1680119;85;21035;-69
2022/07/12 04:26:18;;;;;;;2.55;1.00;;;;;;;15.11;78.69;99791.86;1679578;84;21042;-68
2022/07/12 04:28:47;;;;;;;6.90;1.20;;;;;;;15.15;78.17;99793.89;1680421;85;21459;-70
2022/07/12 04:31:17;;;;;;;2.35;1.30;;;;;;;15.17;78.05;99795.86;1681028;85;21467;-69
2022/07/12 04:33:47;;;;;;;1.72;1.20;;;;;;;15.18;77.73;99787.89;1681050;85;21451;-68
2022/07/12 04:36:17;;;;;;;7.58;1.00;;;;;;;15.20;77.61;99796.76;1680957;85;21497;-68
2022/07/12 04:38:47;;;;;;;1.55;0.70;;;;;;;15.24;77.17;99798.49;1680249;85;21461;-69
2022/07/12 04:41:17;;;;;;;2.40;1.22;;;;;;;15.26;77.06;99797.70;1680292;85;21071;-68
2022/07/12 04:43:50;;;;;;;3.02;0.90;;;;;;;15.30;77.22;99800.28;1680238;85;21015;-70
2022/07/12 04:46:19;;;;;;;2.80;0.72;;;;;;;15.33;76.94;99802.55;1680260;84;21067;-70
2022/07/12 04:48:49;;;;;;;3.55;1.10;;;;;;;15.35;76.54;99796.79;1680266;85;21503;-67
2022/07/12 04:51:18;;;;;;;2.87;1.17;;;;;;;15.39;76.54;99796.06;1680631;85;21086;-69
2022/07/12 04:53:49;;;;;;;2.62;0.90;;;;;;;15.44;76.56;99798.92;1680585;85;21133;-68
2022/07/12 04:56:19;;;;;;;1.32;0.80;;;;;;;15.47;76.22;99814.16;1680307;84;21055;-68
2022/07/12 04:58:48;;;;;;;2.02;0.80;;;;;;;15.51;76.26;99816.19;1680589;85;21129;-69
2022/07/12 05:01:19;;;;;;;2.27;1.00;;;;;;;15.58;75.71;99816.63;1680516;85;21026;-69
2022/07/12 05:03:49;;;;;;;3.72;1.45;;;;;;;15.69;75.46;99812.47;1680112;85;21023;-69
2022/07/12 05:06:20;;;;;;;1.98;1.00;;;;;;;15.85;75.01;99804.78;1679655;85;21083;-68
2022/07/12 05:08:51;;;;;;;1.60;1.00;;;;;;;16.07;74.71;99817.36;1669797;85;21506;-67
2022/07/12 05:11:21;;;;;;;2.17;1.00;;;;;;;16.34;73.74;99818.14;1680203;85;20999;-69
2022/07/12 05:13:52;;;;;;;1.45;1.10;;;;;;;16.58;72.00;99820.20;1669306;85;21054;-67
2022/07/12 05:16:24;;;;;;;3.05;0.93;;;;;;;16.83;71.71;99826.73;1680426;85;21003;-68
2022/07/12 05:18:54;;;;;;;1.12;0.80;;;;;;;17.10;70.78;99824.97;1669034;85;21443;-69
2022/07/12 05:21:25;;;;;;;1.15;0.90;;;;;;;17.40;69.61;99829.55;1680471;85;21443;-69
2022/07/12 05:23:54;;;;;;;3.95;1.27;;;;;;;17.65;67.98;99829.61;1680171;85;21039;-69
2022/07/12 05:26:24;;;;;;;3.75;1.30;;;;;;;17.81;67.39;99824.58;1680732;85;20995;-68
2022/07/12 05:28:54;;;;;;;1.80;0.80;;;;;;;18.04;67.10;99834.53;1680304;85;21471;-69
2022/07/12 05:31:25;;;;;;;1.10;0.90;;;;;;;18.26;65.11;99830.36;1679890;84;21022;-67
2022/07/12 05:33:55;;;;;;;2.37;1.05;;;;;;;18.44;64.67;99841.63;1680705;85;21049;-68
2022/07/12 05:36:25;;;;;;;1.32;0.93;;;;;;;18.55;64.12;99835.06;1680328;85;21035;-69
2022/07/12 05:38:55;;;;;;;2.90;1.47;;;;;;;18.69;62.48;99843.27;1679531;85;21020;-69
2022/07/12 05:41:27;;;;;;;2.42;1.20;;;;;;;18.84;63.10;99855.05;1680350;84;21105;-68
2022/07/12 05:43:57;;;;;;;5.20;1.15;;;;;;;19.06;62.41;99850.25;1680448;84;21066;-70
2022/07/12 05:46:27;;;;;;;3.02;1.10;;;;;;;19.28;61.22;99844.56;1680649;85;21500;-68
2022/07/12 05:48:57;;;;;;;2.00;1.10;;;;;;;19.46;60.82;99841.88;1679848;85;21066;-69
2022/07/12 05:54:17;;;;;;;3.17;0.90;;;;;;;19.77;59.68;99849.88;1680407;85;21091;-69
2022/07/12 05:56:48;;;;;;;2.27;1.05;;;;;;;19.90;58.77;99846.59;1681189;84;21058;-69
2022/07/12 05:59:18;;;;;;;4.28;1.20;;;;;;;20.06;58.75;99836.34;1679766;85;21044;-70
2022/07/12 06:01:48;;;;;;;3.62;1.17;;;;;;;20.30;58.95;99829.20;1680003;85;21038;-70
2022/07/12 06:04:17;;;;;;;3.30;1.05;;;;;;;20.49;57.94;99829.53;1679773;84;21066;-70
2022/07/12 06:06:47;;;;;;;2.52;1.27;;;;;;;20.72;57.92;99833.16;1680583;85;21209;-68
2022/07/12 06:09:17;;;;;;;2.37;1.55;;;;;;;21.00;56.47;99844.32;1680575;84;21083;-69
2022/07/12 06:11:47;;;;;;;4.33;1.45;;;;;;;21.11;55.29;99847.37;1669189;85;21078;-70
2022/07/12 06:14:18;;;;;;;3.58;1.15;;;;;;;21.17;54.91;99848.20;1680503;85;21026;-70
2022/07/12 06:16:48;;;;;;;4.00;1.42;;;;;;;21.26;54.50;99848.49;1679748;85;21127;-68
2022/07/12 06:19:18;;;;;;;2.98;1.20;;;;;;;21.34;54.61;99850.70;1680316;84;21021;-69
2022/07/12 06:21:48;;;;;;;2.75;1.30;;;;;;;21.40;54.61;99855.15;1680229;84;21030;-68
2022/07/12 06:24:18;;;;;;;5.37;1.50;;;;;;;21.53;54.88;99852.36;1680029;85;20979;-69
2022/07/12 06:26:47;;;;;;;3.12;2.15;;;;;;;21.66;54.29;99857.33;1680216;85;21435;-69
2022/07/12 06:29:17;;;;;;;4.95;1.25;;;;;;;21.82;54.58;99855.59;1680462;84;21479;-69
2022/07/12 06:31:48;;;;;;;1.92;1.10;;;;;;;22.00;53.64;99856.91;1677088;85;21493;-68
2022/07/12 06:34:18;;;;;;;2.15;1.15;;;;;;;22.18;53.66;99866.64;1680627;85;21007;-71
2022/07/12 06:36:49;;;;;;;3.10;0.95;;;;;;;22.30;52.06;99860.72;1680659;85;21062;-69
2022/07/12 06:39:19;;;;;;;3.58;1.10;;;;;;;22.31;51.56;99882.76;1680335;85;21030;-69
2022/07/12 06:41:50;;;;;;;2.92;0.80;;;;;;;22.40;51.26;99871.81;1681032;85;21090;-68
2022/07/12 06:44:19;;;;;;;1.85;1.00;;;;;;;22.57;50.61;99872.27;1669839;84;21010;-69
2022/07/12 06:46:48;;;;;;;3.50;1.20;;;;;;;22.79;49.92;99880.23;1680329;85;21059;-68
2022/07/12 06:49:19;;;;;;;2.12;1.62;;;;;;;22.99;49.97;99890.44;1680984;84;21062;-69
2022/07/12 06:51:48;;;;;;;1.22;1.00;;;;;;;23.17;49.61;99879.94;1679967;84;21483;-68
2022/07/12 06:54:18;;;;;;;2.40;1.10;;;;;;;23.30;48.13;99886.23;1680360;84;21039;-69
2022/07/12 06:56:49;;;;;;;3.02;1.00;;;;;;;23.40;48.23;99886.70;1679704;85;21027;-68
2022/07/12 06:59:19;;;;;;;3.35;1.10;;;;;;;23.35;47.12;99890.38;1679579;85;21019;-69
2022/07/12 07:01:52;;;;;;;4.47;1.00;;;;;;;23.17;47.59;99895.31;1680493;85;21057;-69
2022/07/12 07:04:22;;;;;;;3.83;1.95;;;;;;;23.02;47.75;99896.28;1680398;84;21465;-69
2022/07/12 07:06:52;;;;;;;1.22;0.80;;;;;;;22.89;48.12;99898.34;1679473;85;21039;-69
2022/07/12 07:09:21;;;;;;;3.00;0.80;;;;;;;22.72;47.77;99898.69;1680073;84;20991;-68
2022/07/12 07:11:51;;;;;;;7.75;2.92;;;;;;;22.76;47.70;99895.61;1680482;84;21022;-68
2022/07/12 07:14:22;;;;;;;0.88;0.80;;;;;;;22.85;47.65;99899.22;1680283;84;21431;-68
2022/07/12 07:16:54;;;;;;;1.17;0.70;;;;;;;22.91;47.54;99898.88;1680949;85;21023;-68
2022/07/12 07:19:26;;;;;;;1.35;0.90;;;;;;;23.06;47.54;99904.34;1680383;84;21035;-69
2022/07/12 07:21:56;;;;;;;1.80;0.60;;;;;;;23.25;46.56;99904.46;1669140;84;21078;-67
2022/07/12 07:24:26;;;;;;;5.00;1.55;;;;;;;23.28;45.04;99903.88;1680269;85;21073;-66
2022/07/12 07:26:56;;;;;;;1.20;0.88;;;;;;;23.08;45.26;99899.86;1680836;85;20990;-69
2022/07/12 07:32:17;;;;;;;2.52;0.95;;;;;;;22.84;45.72;99905.92;1680665;84;21070;-70
2022/07/12 07:34:47;;;;;;;2.27;0.90;;;;;;;22.80;46.70;99902.88;1680209;85;21715;-69
2022/07/12 07:37:17;;;;;;;1.98;0.72;;;;;;;22.91;46.40;99907.83;1680623;85;21075;-69
2022/07/12 07:39:48;;;;;;;2.87;0.68;;;;;;;22.91;45.88;99908.66;1680438;85;21047;-68
2022/07/12 07:42:17;;;;;;;5.37;1.62;;;;;;;22.57;45.90;99918.90;1679970;85;21079;-69
2022/07/12 07:44:47;;;;;;;2.65;0.93;;;;;;;22.39;45.96;99917.61;1680194;85;21505;-69
2022/07/12 07:47:19;;;;;;;3.17;1.20;;;;;;;22.55;46.88;99916.39;1679214;85;21042;-69
2022/07/12 07:49:48;;;;;;;2.12;1.20;;;;;;;22.81;45.53;99917.13;1680647;84;21486;-70
2022/07/12 07:52:19;;;;;;;1.82;1.12;;;;;;;22.81;45.42;99924.11;1679079;85;21051;-68
2022/07/12 07:54:48;;;;;;;2.10;1.05;;;;;;;22.58;46.00;99921.97;1677541;84;21433;-69
2022/07/12 07:57:18;;;;;;;2.98;1.00;;;;;;;22.52;46.88;99914.18;1674008;85;21063;-69
2022/07/12 07:59:48;;;;;;;2.02;0.98;;;;;;;22.43;45.87;99932.09;1678154;85;21157;-66
2022/07/12 08:02:18;;;;;;;1.85;0.90;;;;;;;22.18;46.67;99928.04;1682647;84;21022;-66
2022/07/12 08:04:48;;;;;;;5.08;1.60;;;;;;;21.92;47.85;99931.42;1679123;85;21454;-65
2022/07/12 08:07:20;;;;;;;2.10;1.25;;;;;;;21.93;48.85;99933.09;1679831;85;21107;-66
2022/07/12 08:09:51;;;;;;;1.80;0.93;;;;;;;22.06;48.62;99933.08;1672537;85;21060;-66
2022/07/12 08:12:21;;;;;;;4.30;1.57;;;;;;;22.10;48.32;99936.97;1673940;84;21019;-68
2022/07/12 08:14:51;;;;;;;2.15;0.98;;;;;;;21.95;47.80;99928.62;1671269;84;21023;-65
2022/07/12 08:17:23;;;;;;;1.25;0.90;;;;;;;21.70;47.70;99922.01;1675219;85;21126;-65
2022/07/12 08:19:53;;;;;;;1.72;1.10;;;;;;;21.49;48.28;99920.38;1675666;85;21102;-66
2022/07/12 08:22:24;;;;;;;1.55;1.00;;;;;;;21.41;48.10;99920.92;1674532;84;21028;-66
2022/07/12 08:24:53;;;;;;;1.05;0.82;;;;;;;21.29;48.58;99925.95;1672266;85;21137;-68
2022/07/12 08:27:22;;;;;;;1.52;0.82;;;;;;;21.24;48.46;99923.17;1675533;85;21078;-62
2022/07/12 08:29:51;;;;;;;4.00;1.10;;;;;;;21.17;48.58;99927.05;1672038;84;21087;-61
2022/07/12 08:32:21;;;;;;;2.80;0.98;;;;;;;21.12;48.62;99929.00;1668653;85;21062;-60
2022/07/12 08:34:51;;;;;;;1.82;1.10;;;;;;;21.06;49.34;99927.33;1664586;85;21571;-60
2022/07/12 08:37:21;;;;;;;1.90;0.98;;;;;;;21.11;50.02;99930.95;1674587;85;21035;-60
2022/07/12 08:39:51;;;;;;;1.62;0.90;;;;;;;21.27;49.46;99922.61;1670241;85;21011;-61
2022/07/12 08:42:20;;;;;;;3.27;0.88;;;;;;;21.49;48.80;99924.01;1679406;84;21087;-61
2022/07/12 08:44:55;;;;;;;1.37;0.88;;;;;;;21.66;47.93;99922.86;1676097;85;21102;-60
2022/07/12 08:47:25;;;;;;;1.57;0.90;;;;;;;21.68;48.13;99924.80;1675828;85;21051;-61
2022/07/12 08:50:18;;;;;;;2.37;0.85;;;;;;;21.71;48.30;99922.28;1671038;85;21420;-61
2022/07/12 08:52:49;;;;;;;1.47;0.90;;;;;;;21.74;48.21;99920.33;1661608;85;21067;-62
2022/07/12 08:55:30;;;;;;;4.10;1.07;;;;;;;21.84;48.11;99916.67;1671517;85;21066;-61
2022/07/12 08:58:07;;;;;;;3.00;1.10;;;;;;;21.95;47.56;99919.70;1667117;85;21035;-62
2022/07/12 09:00:37;;;;;;;2.27;1.10;;;;;;;22.03;47.05;99911.33;1666232;85;21000;-62
2022/07/12 09:03:07;;;;;;;4.92;1.02;;;;;;;22.26;46.42;99914.05;1629063;85;21118;-61
2022/07/12 09:05:37;;;;;;;2.05;0.93;;;;;;;22.57;45.43;99917.50;1676103;85;21513;-62
2022/07/12 09:08:09;;;;;;;3.12;0.95;;;;;;;22.77;45.39;99913.20;1675861;84;21079;-61
2022/07/12 09:11:02;;;;;;;3.65;1.00;;;;;;;22.94;45.40;99919.25;1669111;85;21054;-61
2022/07/12 09:13:52;;;;;;;2.75;0.80;;;;;;;23.16;45.46;99920.76;1675051;85;21078;-62
2022/07/12 09:16:24;;;;;;;6.85;3.65;;;;;;;23.38;44.69;99915.52;1667441;85;21086;-61
2022/07/12 09:19:16;;;;;;;3.52;1.10;;;;;;;23.51;44.63;99917.66;1675016;85;21310;-61
2022/07/12 09:21:51;;;;;;;2.00;0.90;;;;;;;23.55;43.95;99924.36;1676004;85;21044;-61
2022/07/12 09:24:23;;;;;;;2.95;1.50;;;;;;;23.54;43.44;99922.66;1666451;85;21125;-61
2022/07/12 09:27:03;;;;;;;1.85;0.60;;;;;;;23.51;43.98;99921.02;1675393;85;20987;-63
2022/07/12 09:29:36;;;;;;;3.17;1.00;;;;;;;23.42;42.89;99920.83;1675370;85;21047;-61
2022/07/12 09:37:46;;;;;;;2.62;0.70;;;;;;;23.13;43.08;99919.95;1667926;85;21071;-61
2022/07/12 09:40:17;;;;;;;2.37;0.72;;;;;;;22.99;43.96;99919.78;1675908;85;21051;-60
2022/07/12 09:42:47;;;;;;;1.22;0.72;;;;;;;22.80;42.31;99928.55;1676370;85;21089;-61
2022/07/12 09:45:17;;;;;;;1.37;0.72;;;;;;;22.66;43.43;99943.70;1676203;85;21115;-63
2022/07/12 09:47:47;;;;;;;1.92;0.70;;;;;;;22.66;43.89;99929.73;1675551;85;21537;-62
2022/07/12 09:50:23;;;;;;;1.00;0.68;;;;;;;22.72;43.87;99918.80;1676299;85;21055;-62
2022/07/12 09:52:53;;;;;;;1.27;0.80;;;;;;;22.75;43.77;99924.64;1676373;85;21007;-61
2022/07/12 09:55:24;;;;;;;2.27;0.90;;;;;;;22.79;43.79;99924.92;1676157;85;21046;-64
2022/07/12 09:57:56;;;;;;;2.77;0.70;;;;;;;22.81;43.53;99921.31;1675961;85;21067;-61
2022/07/12 10:00:25;;;;;;;1.72;0.90;;;;;;;22.81;44.25;99905.11;1676318;85;21015;-62
2022/07/12 10:02:55;;;;;;;1.98;1.00;;;;;;;22.81;43.26;99921.88;1664892;85;21019;-62
2022/07/12 10:05:26;;;;;;;2.27;1.50;;;;;;;22.73;43.50;99910.69;1675779;85;21047;-61
2022/07/12 10:07:56;;;;;;;2.87;1.20;;;;;;;22.78;43.44;99906.50;1675522;84;21066;-62
2022/07/12 10:10:26;;;;;;;1.87;1.07;;;;;;;22.87;42.94;99915.13;1679122;84;21485;-61
2022/07/12 10:12:56;;;;;;;1.85;1.10;;;;;;;22.89;42.87;99908.13;1650505;85;21096;-60
2022/07/12 10:15:27;;;;;;;3.17;1.10;;;;;;;22.89;42.70;99915.10;1677608;85;21062;-60
2022/07/12 10:18:00;;;;;;;1.00;0.60;;;;;;;22.82;42.52;99920.75;1679470;85;21510;-61
2022/07/12 10:20:30;;;;;;;1.02;0.50;;;;;;;22.67;41.93;99918.27;1625408;85;21087;-62
2022/07/12 10:23:21;;;;;;;1.35;0.60;;;;;;;22.47;42.17;99910.02;1679761;84;21456;-60
2022/07/12 10:25:53;;;;;;;1.55;0.68;;;;;;;22.30;42.38;99917.37;1681086;84;21486;-59
2022/07/12 10:28:23;;;;;;;1.92;0.78;;;;;;;22.12;42.90;99911.88;1676369;84;21080;-61
2022/07/12 10:30:53;;;;;;;4.83;1.12;;;;;;;22.03;43.52;99902.96;1680303;84;20980;-62
2022/07/12 10:33:23;;;;;;;1.37;1.12;;;;;;;22.00;43.86;99904.89;1657892;85;21134;-61
2022/07/12 10:36:02;;;;;;;1.67;0.90;;;;;;;22.00;44.31;99899.31;1669564;85;21042;-61
2022/07/12 10:38:31;;;;;;;1.57;0.78;;;;;;;22.01;44.94;99900.98;1679735;85;21129;-62
2022/07/12 10:41:26;;;;;;;1.50;0.90;;;;;;;22.07;44.64;99900.71;1669941;85;21093;-61
2022/07/12 10:44:07;;;;;;;2.10;0.80;;;;;;;22.15;44.97;99897.92;1680678;84;21039;-62
2022/07/12 10:46:37;;;;;;;6.03;1.00;;;;;;;22.20;44.21;99901.24;1681031;84;20994;-61
2022/07/12 10:49:28;;;;;;;2.00;0.80;;;;;;;22.22;44.95;99900.39;1670624;85;21074;-60
2022/07/12 10:52:15;;;;;;;2.20;1.00;;;;;;;22.31;45.22;99909.27;1677196;84;21073;-63
2022/07/12 10:55:01;;;;;;;1.47;1.00;;;;;;;22.35;45.13;99918.74;1681248;85;21050;-62
2022/07/12 10:57:46;;;;;;;5.53;2.70;;;;;;;22.33;45.58;99925.17;1665233;85;21015;-61
2022/07/12 11:00:18;;;;;;;2.85;1.98;;;;;;;22.26;47.95;99926.05;1676949;85;21098;-61
2022/07/12 11:02:47;;;;;;;1.85;1.25;;;;;;;22.19;48.18;99935.30;1679022;84;21521;-61
2022/07/12 11:05:16;;;;;;;5.15;2.25;;;;;;;22.10;47.97;99927.20;1679548;85;21082;-61
2022/07/12 11:07:47;;;;;;;3.25;2.00;;;;;;;22.05;48.07;99930.02;1681067;85;21101;-60
2022/07/12 11:10:20;;;;;;;4.92;2.50;;;;;;;22.12;47.79;99931.97;1676124;85;21046;-60
2022/07/12 11:12:49;;;;;;;1.90;1.00;;;;;;;22.17;45.26;99934.73;1676597;85;21023;-60
2022/07/12 11:15:19;;;;;;;2.40;1.10;;;;;;;22.14;43.91;99924.15;1646253;85;21030;-59
2022/07/12 11:17:49;;;;;;;1.12;0.90;;;;;;;22.11;45.20;99916.35;1691339;84;21479;-61
2022/07/12 11:20:20;;;;;;;1.47;0.80;;;;;;;22.09;47.74;99918.56;1675358;85;21027;-59
2022/07/12 11:22:51;;;;;;;1.77;1.10;;;;;;;22.05;50.14;99909.09;1675831;85;21407;-61
2022/07/12 11:25:22;;;;;;;5.30;1.30;;;;;;;22.00;50.84;99895.97;1662636;85;21054;-59
2022/07/12 11:27:52;;;;;;;2.08;0.80;;;;;;;21.97;53.78;99897.09;1675965;85;20995;-62
2022/07/12 11:30:22;;;;;;;1.10;0.70;;;;;;;21.95;54.30;99895.98;1687303;84;21086;-60
2022/07/12 11:32:53;;;;;;;3.33;0.70;;;;;;;21.95;52.78;99903.52;1676046;85;21018;-59
2022/07/12 11:35:28;;;;;;;3.75;1.22;;;;;;;22.00;51.70;99911.88;1676040;85;21039;-61
2022/07/12 11:37:58;;;;;;;1.50;0.72;;;;;;;22.04;50.90;99915.80;1675772;85;21082;-61
2022/07/12 11:40:30;;;;;;;4.03;1.30;;;;;;;22.04;50.18;99921.38;1676824;85;21083;-60
2022/07/12 11:43:00;;;;;;;4.00;0.93;;;;;;;21.98;50.13;99927.50;1669845;84;21026;-61
2022/07/12 11:45:33;;;;;;;2.45;0.93;;;;;;;21.92;50.11;99943.14;1672698;85;21086;-61
2022/07/12 11:48:05;;;;;;;1.80;1.10;;;;;;;21.86;49.52;99948.47;1674892;85;21456;-61
2022/07/12 11:50:35;;;;;;;3.52;1.65;;;;;;;21.75;48.39;99951.28;1675717;85;21003;-61
2022/07/12 11:53:05;;;;;;;9.13;1.65;;;;;;;21.66;48.60;99957.71;1676607;85;21062;-61
2022/07/12 11:55:49;;;;;;;1.85;0.90;;;;;;;21.58;48.90;99950.76;1643811;85;21134;-62
2022/07/12 11:58:19;;;;;;;1.77;0.88;;;;;;;21.57;48.91;99955.22;1675419;85;21015;-61
2022/07/12 12:00:50;;;;;;;2.85;0.85;;;;;;;21.48;47.92;99954.39;1676200;85;21035;-62
2022/07/12 12:03:22;;;;;;;1.80;0.80;;;;;;;21.32;46.27;99957.45;1675956;85;21031;-61